Terminal Aerodrome Forecast
Issued by NWS Shreveport, LA

Home | Current Version | Previous Version | Text Only | Print | Product List | Glossary On
Versions: 1 2 3 4 5 6 7 8 9 10 11 12 13 14
000
FTUS44 KSHV 310500
TAFGGG
TAF
KGGG 310523Z 3106/0106 12008KT P6SM BKN130 BKN250
     FM310900 14005KT P6SM VCTS SCT050CB BKN120
      TEMPO 3109/3113 4SM TSRA BR BKN020CB
     FM311300 14006KT 5SM TSRA BR BKN017CB
     FM311700 14006KT P6SM VCSH BKN020
     FM312000 13006KT P6SM VCTS BKN035CB=

USA.gov is the U.S. government's official web portal to all federal, state and local government web resources and services.